createdAt,value
2018-05-21T00:01:56.997Z,10.90
2018-05-21T00:04:25.292Z,10.70
2018-05-21T00:06:53.557Z,10.60
2018-05-21T00:09:21.845Z,10.80
2018-05-21T00:11:49.311Z,10.80
2018-05-21T00:14:16.791Z,10.90
2018-05-21T00:16:44.334Z,11.00
2018-05-21T00:19:11.821Z,10.90
2018-05-21T00:21:39.277Z,10.90
2018-05-21T00:24:06.784Z,10.90
2018-05-21T00:26:34.310Z,10.80
2018-05-21T00:29:01.826Z,10.80
2018-05-21T00:31:29.349Z,10.70
2018-05-21T00:33:56.861Z,10.70
2018-05-21T00:36:24.383Z,10.70
2018-05-21T00:38:51.879Z,10.70
2018-05-21T00:41:19.392Z,10.80
2018-05-21T00:43:46.908Z,10.80
2018-05-21T00:46:14.441Z,10.80
2018-05-21T00:48:41.921Z,10.70
2018-05-21T00:51:09.443Z,10.70
2018-05-21T00:53:36.898Z,10.60
2018-05-21T00:56:04.383Z,10.70
2018-05-21T00:58:31.903Z,10.60
2018-05-21T01:00:59.402Z,10.50
2018-05-21T01:03:26.894Z,10.30
2018-05-21T01:05:55.185Z,10.00
2018-05-21T01:08:22.680Z,10.00
2018-05-21T01:10:50.196Z,10.00
2018-05-21T01:13:17.727Z,10.10
2018-05-21T01:15:46.068Z,10.10
2018-05-21T01:18:13.541Z,10.10
2018-05-21T01:20:41.039Z,10.10
2018-05-21T01:23:08.534Z,10.10
2018-05-21T01:25:36.769Z,9.80
2018-05-21T01:28:04.382Z,9.80
2018-05-21T01:30:31.909Z,9.80
2018-05-21T01:32:59.423Z,9.70
2018-05-21T01:35:26.918Z,9.70
2018-05-21T01:37:54.379Z,9.80
2018-05-21T01:40:21.849Z,9.80
2018-05-21T01:42:49.351Z,9.80
2018-05-21T01:45:16.857Z,9.80
2018-05-21T01:47:44.365Z,9.90
2018-05-21T01:50:11.890Z,10.10
2018-05-21T01:52:39.362Z,10.10
2018-05-21T01:55:06.878Z,10.10
2018-05-21T01:57:34.390Z,10.00
2018-05-21T02:00:01.898Z,9.90
2018-05-21T02:02:29.426Z,10.10
2018-05-21T02:04:57.680Z,10.20
2018-05-21T02:07:25.198Z,10.20
2018-05-21T02:09:52.703Z,10.20
2018-05-21T02:12:20.216Z,10.10
2018-05-21T02:14:47.714Z,10.00
2018-05-21T02:17:15.222Z,10.00
2018-05-21T02:19:42.734Z,10.00
2018-05-21T02:22:10.978Z,10.00
2018-05-21T02:24:38.505Z,10.00
2018-05-21T02:27:06.074Z,10.10
2018-05-21T02:29:33.485Z,10.20
2018-05-21T02:32:01.018Z,10.30
2018-05-21T02:34:28.527Z,10.30
2018-05-21T02:36:56.023Z,10.40
2018-05-21T02:39:23.485Z,10.50
2018-05-21T02:41:50.954Z,10.50
2018-05-21T02:44:18.459Z,10.50
2018-05-21T02:46:45.985Z,10.30
2018-05-21T02:49:13.491Z,10.10
2018-05-21T02:51:40.967Z,10.00
2018-05-21T02:54:08.426Z,9.90
2018-05-21T02:56:35.944Z,9.90
2018-05-21T02:59:03.415Z,9.70
2018-05-21T03:01:30.878Z,9.70
2018-05-21T03:03:58.405Z,9.60
2018-05-21T03:06:26.668Z,9.40
2018-05-21T03:08:54.942Z,9.40
2018-05-21T03:11:23.213Z,9.40
2018-05-21T03:13:50.728Z,9.30
2018-05-21T03:16:18.238Z,9.30
2018-05-21T03:18:46.521Z,9.20
2018-05-21T03:21:14.791Z,9.20
2018-05-21T03:23:43.065Z,9.20
2018-05-21T03:26:11.310Z,9.10
2018-05-21T03:28:38.777Z,9.10
2018-05-21T03:31:06.288Z,9.00
2018-05-21T03:33:33.814Z,9.10
2018-05-21T03:36:02.075Z,9.10
2018-05-21T03:38:29.598Z,9.10
2018-05-21T03:40:57.082Z,9.10
2018-05-21T03:43:24.578Z,9.20
2018-05-21T03:45:52.199Z,9.20
2018-05-21T03:48:19.721Z,9.40
2018-05-21T03:50:47.289Z,9.60
2018-05-21T03:53:14.816Z,9.60
2018-05-21T03:55:43.063Z,9.50
2018-05-21T03:58:22.342Z,9.50
2018-05-21T04:01:01.770Z,9.50
2018-05-21T04:03:41.118Z,9.60
2018-05-21T04:06:09.478Z,9.60
2018-05-21T04:08:37.009Z,9.70
2018-05-21T04:11:05.282Z,9.70
2018-05-21T04:13:32.787Z,9.60
2018-05-21T04:16:00.274Z,9.70
2018-05-21T04:18:27.783Z,9.80
2018-05-21T04:20:55.298Z,9.80
2018-05-21T04:23:22.762Z,9.90
2018-05-21T04:25:50.267Z,10.10
2018-05-21T04:28:17.789Z,10.50
2018-05-21T04:30:46.038Z,11.20
2018-05-21T04:33:13.546Z,11.20
2018-05-21T04:35:41.041Z,11.40
2018-05-21T04:38:09.298Z,11.80
2018-05-21T04:40:36.787Z,11.80
2018-05-21T04:43:04.266Z,11.90
2018-05-21T04:45:32.551Z,12.20
2018-05-21T04:48:00.794Z,12.40
2018-05-21T04:50:28.253Z,12.40
2018-05-21T04:52:55.768Z,12.60
2018-05-21T04:55:23.275Z,12.70
2018-05-21T04:57:50.804Z,12.90
2018-05-21T05:00:18.325Z,13.10
2018-05-21T05:02:46.558Z,13.60
2018-05-21T05:05:14.034Z,13.60
2018-05-21T05:07:42.295Z,14.30
2018-05-21T05:10:09.811Z,14.30
2018-05-21T05:12:37.316Z,14.60
2018-05-21T05:15:04.814Z,15.00
2018-05-21T05:17:32.313Z,15.40
2018-05-21T05:19:59.793Z,15.80
2018-05-21T05:22:28.423Z,16.50
2018-05-21T05:24:55.962Z,16.50
2018-05-21T05:27:23.453Z,16.90
2018-05-21T05:29:50.942Z,17.60
2018-05-21T05:32:18.420Z,18.30
2018-05-21T05:34:45.956Z,18.90
2018-05-21T05:37:13.462Z,19.30
2018-05-21T05:39:40.930Z,19.90
2018-05-21T05:42:08.429Z,20.40
2018-05-21T05:44:35.904Z,20.90
2018-05-21T05:47:04.197Z,21.80
2018-05-21T05:49:31.679Z,21.70
2018-05-21T05:51:59.187Z,22.50
2018-05-21T05:54:26.675Z,23.30
2018-05-21T05:56:54.183Z,24.40
2018-05-21T05:59:21.689Z,25.30
2018-05-21T06:01:49.225Z,25.70
2018-05-21T06:04:17.567Z,25.60
2018-05-21T06:06:45.067Z,25.50
2018-05-21T06:09:13.351Z,26.70
2018-05-21T06:11:40.869Z,26.70
2018-05-21T06:14:08.484Z,26.90
2018-05-21T06:16:36.018Z,26.20
2018-05-21T06:19:04.276Z,26.70
2018-05-21T06:21:31.738Z,26.60
2018-05-21T06:24:00.032Z,26.80
2018-05-21T06:26:28.320Z,26.00
2018-05-21T06:28:55.824Z,25.90
2018-05-21T06:31:23.298Z,26.50
2018-05-21T06:33:50.791Z,26.90
2018-05-21T06:36:18.317Z,27.10
2018-05-21T06:38:45.820Z,28.10
2018-05-21T06:41:13.540Z,28.60
2018-05-21T06:43:41.062Z,28.40
2018-05-21T06:46:08.606Z,29.10
2018-05-21T06:48:36.117Z,29.40
2018-05-21T06:51:04.417Z,29.50
2018-05-21T06:53:31.899Z,29.50
2018-05-21T06:55:59.460Z,28.40
2018-05-21T06:58:26.934Z,27.90
2018-05-21T07:00:55.262Z,26.50
2018-05-21T07:03:22.730Z,26.50
2018-05-21T07:05:50.265Z,26.40
2018-05-21T07:08:18.555Z,28.60
2018-05-21T07:10:46.079Z,28.60
2018-05-21T07:13:13.597Z,28.70
2018-05-21T07:15:41.094Z,28.10
2018-05-21T07:18:08.673Z,27.90
2018-05-21T07:20:36.115Z,27.70
2018-05-21T07:23:03.613Z,28.10
2018-05-21T07:25:31.149Z,28.50
2018-05-21T07:27:59.408Z,29.70
2018-05-21T07:30:27.717Z,30.00
2018-05-21T07:32:55.246Z,29.90
2018-05-21T07:35:22.774Z,29.60
2018-05-21T07:37:50.268Z,29.10
2018-05-21T07:40:18.578Z,28.00
2018-05-21T07:42:46.079Z,28.00
2018-05-21T07:45:13.548Z,27.60
2018-05-21T07:47:41.046Z,27.60
2018-05-21T07:50:08.564Z,27.20
2018-05-21T07:52:36.068Z,27.60
2018-05-21T07:55:03.530Z,28.00
2018-05-21T07:57:31.053Z,27.70
2018-05-21T07:59:59.303Z,27.70
2018-05-21T08:02:26.801Z,27.70
2018-05-21T08:04:54.271Z,28.80
2018-05-21T08:07:21.771Z,29.10
2018-05-21T08:09:49.283Z,29.40
2018-05-21T08:12:16.831Z,28.00
2018-05-21T08:14:44.468Z,27.70
2018-05-21T08:17:11.863Z,27.70
2018-05-21T08:19:39.364Z,28.50
2018-05-21T08:22:06.895Z,28.10
2018-05-21T08:24:34.378Z,26.40
2018-05-21T08:27:02.035Z,26.10
2018-05-21T08:29:29.542Z,26.60
2018-05-21T08:31:57.018Z,27.00
2018-05-21T08:34:24.547Z,27.70
2018-05-21T08:36:52.779Z,26.90
2018-05-21T08:39:20.297Z,26.80
2018-05-21T08:41:47.803Z,27.00
2018-05-21T08:44:15.308Z,26.70
2018-05-21T08:46:42.820Z,27.20
2018-05-21T08:49:10.298Z,27.60
2018-05-21T08:51:38.590Z,27.20
2018-05-21T08:54:06.118Z,27.20
2018-05-21T08:56:33.698Z,27.10
2018-05-21T08:59:01.114Z,26.70
2018-05-21T09:01:28.597Z,25.50
2018-05-21T09:03:56.071Z,25.80
2018-05-21T09:06:24.356Z,26.20
2018-05-21T09:08:51.881Z,26.20
2018-05-21T09:11:19.399Z,24.70
2018-05-21T09:13:47.474Z,23.00
2018-05-21T09:16:14.984Z,22.00
2018-05-21T09:18:42.446Z,21.40
2018-05-21T09:21:12.139Z,20.70
2018-05-21T09:23:40.066Z,20.70
2018-05-21T09:26:07.686Z,20.50
2018-05-21T09:28:35.123Z,20.40
2018-05-21T09:31:02.641Z,20.10
2018-05-21T09:33:30.163Z,20.00
2018-05-21T09:35:58.393Z,19.70
2018-05-21T09:38:25.932Z,19.60
2018-05-21T09:40:53.398Z,19.60
2018-05-21T09:43:20.886Z,19.70
2018-05-21T09:45:48.394Z,19.80
2018-05-21T09:48:15.980Z,19.80
2018-05-21T09:50:43.503Z,19.60
2018-05-21T09:53:11.007Z,19.70
2018-05-21T09:55:38.545Z,19.70
2018-05-21T09:58:06.059Z,19.80
2018-05-21T10:00:34.320Z,19.80
2018-05-21T10:03:01.859Z,19.70
2018-05-21T10:05:29.374Z,19.70
2018-05-21T10:07:56.891Z,19.60
2018-05-21T10:10:24.409Z,19.70
2018-05-21T10:12:51.924Z,19.70
2018-05-21T10:15:20.191Z,19.70
2018-05-21T10:17:48.467Z,19.80
2018-05-21T10:20:16.746Z,19.90
2018-05-21T10:22:45.040Z,20.00
2018-05-21T10:25:12.558Z,20.00
2018-05-21T10:27:40.034Z,20.00
2018-05-21T10:30:08.306Z,19.80
2018-05-21T10:32:36.597Z,19.90
2018-05-21T10:35:04.883Z,20.00
2018-05-21T10:37:32.412Z,19.90
2018-05-21T10:40:00.647Z,19.80
2018-05-21T10:42:28.168Z,19.80
2018-05-21T10:44:55.668Z,19.80
2018-05-21T10:47:23.150Z,19.80
2018-05-21T10:49:50.614Z,19.90
2018-05-21T10:52:18.859Z,19.80
2018-05-21T10:54:47.145Z,19.80
2018-05-21T10:57:14.645Z,19.70
2018-05-21T10:59:42.941Z,19.80
2018-05-21T11:02:10.464Z,19.80
2018-05-21T11:04:38.034Z,19.90
2018-05-21T11:07:05.474Z,20.00
2018-05-21T11:09:33.714Z,20.20
2018-05-21T11:12:01.228Z,20.20
2018-05-21T11:14:28.700Z,20.20
2018-05-21T11:16:56.198Z,20.00
2018-05-21T11:19:23.700Z,19.90
2018-05-21T11:21:51.166Z,19.90
2018-05-21T11:24:18.705Z,19.90
2018-05-21T11:26:46.976Z,20.00
2018-05-21T11:29:15.609Z,20.00
2018-05-21T11:31:43.118Z,20.00
2018-05-21T11:34:11.379Z,20.10
2018-05-21T11:36:38.898Z,20.10
2018-05-21T11:39:06.412Z,20.00
2018-05-21T11:41:34.650Z,20.10
2018-05-21T11:44:02.138Z,20.10
2018-05-21T11:46:30.392Z,20.10
2018-05-21T11:48:57.946Z,20.10
2018-05-21T11:51:25.439Z,20.20
2018-05-21T11:53:53.739Z,20.30
2018-05-21T11:56:21.262Z,20.30
2018-05-21T11:58:49.530Z,20.20
2018-05-21T12:01:17.018Z,20.20
2018-05-21T12:03:44.546Z,20.10
2018-05-21T12:06:12.033Z,20.00
2018-05-21T12:08:39.552Z,20.00
2018-05-21T12:11:07.048Z,20.00
2018-05-21T12:13:34.596Z,20.20
2018-05-21T12:16:02.067Z,20.20
2018-05-21T12:18:29.580Z,20.20
2018-05-21T12:20:57.065Z,20.30
2018-05-21T12:23:25.290Z,20.50
2018-05-21T12:25:52.804Z,20.40
2018-05-21T12:28:21.070Z,20.30
2018-05-21T12:30:49.383Z,20.30
2018-05-21T12:33:16.913Z,20.20
2018-05-21T12:35:45.193Z,20.20
2018-05-21T12:38:13.462Z,20.10
2018-05-21T12:40:43.841Z,20.10
2018-05-21T12:43:11.335Z,20.10
2018-05-21T12:45:39.573Z,20.10
2018-05-21T12:48:07.069Z,20.10
2018-05-21T12:50:35.343Z,20.10
2018-05-21T12:53:03.603Z,20.00
2018-05-21T12:55:31.080Z,20.00
2018-05-21T12:57:59.351Z,20.10
2018-05-21T13:00:27.630Z,20.10
2018-05-21T13:02:55.919Z,20.00
2018-05-21T13:05:23.435Z,20.00
2018-05-21T13:07:50.898Z,19.90
2018-05-21T13:10:18.423Z,19.90
2018-05-21T13:12:45.914Z,20.00
2018-05-21T13:15:13.469Z,20.10
2018-05-21T13:17:40.925Z,20.20
2018-05-21T13:20:08.430Z,20.40
2018-05-21T13:22:35.929Z,20.40
2018-05-21T13:25:03.436Z,20.50
2018-05-21T13:27:31.694Z,20.50
2018-05-21T13:29:59.968Z,20.60
2018-05-21T13:32:27.469Z,20.60
2018-05-21T13:34:55.000Z,20.70
2018-05-21T13:37:23.280Z,20.70
2018-05-21T13:39:50.800Z,20.70
2018-05-21T13:42:18.309Z,20.70
2018-05-21T13:44:45.838Z,20.80
2018-05-21T13:47:14.066Z,20.70
2018-05-21T13:49:41.603Z,20.70
2018-05-21T13:52:09.106Z,20.70
2018-05-21T13:54:36.613Z,20.70
2018-05-21T13:57:04.142Z,20.70
2018-05-21T13:59:31.639Z,20.60
2018-05-21T14:01:59.166Z,20.60
2018-05-21T14:04:27.450Z,20.50
2018-05-21T14:06:55.753Z,20.70
2018-05-21T14:09:23.247Z,20.60
2018-05-21T14:11:50.743Z,20.70
2018-05-21T14:14:18.234Z,20.80
2018-05-21T14:16:45.739Z,20.90
2018-05-21T14:19:13.975Z,21.00
2018-05-21T14:21:41.614Z,20.90
2018-05-21T14:24:09.018Z,21.10
2018-05-21T14:26:36.527Z,21.10
2018-05-21T14:29:04.052Z,20.90
2018-05-21T14:31:32.322Z,20.90
2018-05-21T14:33:59.815Z,20.90
2018-05-21T14:36:27.335Z,20.90
2018-05-21T14:38:54.862Z,21.00
2018-05-21T14:41:22.400Z,21.10
2018-05-21T14:43:49.899Z,21.00
2018-05-21T14:46:17.378Z,21.00
2018-05-21T14:48:45.638Z,20.90
2018-05-21T14:51:13.115Z,20.90
2018-05-21T14:53:41.378Z,20.90
2018-05-21T14:56:09.657Z,20.80
2018-05-21T14:58:37.918Z,20.70
2018-05-21T15:01:05.448Z,20.70
2018-05-21T15:03:32.929Z,20.60
2018-05-21T15:06:00.469Z,20.60
2018-05-21T15:08:27.938Z,20.70
2018-05-21T15:10:55.458Z,20.70
2018-05-21T15:13:22.964Z,20.60
2018-05-21T15:15:50.474Z,20.70
2018-05-21T15:18:17.999Z,20.70
2018-05-21T15:20:46.287Z,20.60
2018-05-21T15:23:13.819Z,20.60
2018-05-21T15:25:41.338Z,20.60
2018-05-21T15:28:08.869Z,20.50
2018-05-21T15:30:36.387Z,20.50
2018-05-21T15:33:03.887Z,20.50
2018-05-21T15:35:31.407Z,20.50
2018-05-21T15:37:58.916Z,20.50
2018-05-21T15:40:26.432Z,20.50
2018-05-21T15:42:54.728Z,20.50
2018-05-21T15:45:22.199Z,20.40
2018-05-21T15:47:49.716Z,20.50
2018-05-21T15:50:17.215Z,20.50
2018-05-21T15:52:44.719Z,20.50
2018-05-21T15:55:12.239Z,20.50
2018-05-21T15:57:39.833Z,20.40
2018-05-21T16:00:07.295Z,20.50
2018-05-21T16:02:34.914Z,20.60
2018-05-21T16:05:02.381Z,20.60
2018-05-21T16:07:29.890Z,20.60
2018-05-21T16:09:58.178Z,20.60
2018-05-21T16:12:26.438Z,20.60
2018-05-21T16:14:54.724Z,20.60
2018-05-21T16:17:22.989Z,20.60
2018-05-21T16:19:51.254Z,20.50
2018-05-21T16:22:18.730Z,20.50
2018-05-21T16:24:46.961Z,20.30
2018-05-21T16:27:14.509Z,20.30
2018-05-21T16:29:42.013Z,20.20
2018-05-21T16:32:10.262Z,20.20
2018-05-21T16:34:37.796Z,20.20
2018-05-21T16:37:05.291Z,20.20
2018-05-21T16:39:32.810Z,20.20
2018-05-21T16:42:00.292Z,20.30
2018-05-21T16:44:27.813Z,20.30
2018-05-21T16:46:55.310Z,20.30
2018-05-21T16:49:23.605Z,20.30
2018-05-21T16:51:51.098Z,20.30
2018-05-21T16:54:18.608Z,20.20
2018-05-21T16:56:46.069Z,20.20
2018-05-21T16:59:13.598Z,20.20
2018-05-21T17:01:41.059Z,20.10
2018-05-21T17:04:08.583Z,20.00
2018-05-21T17:06:36.107Z,20.00
2018-05-21T17:09:03.618Z,20.00
2018-05-21T17:11:31.129Z,19.90
2018-05-21T17:13:59.525Z,19.80
2018-05-21T17:16:26.966Z,19.70
2018-05-21T17:18:55.199Z,19.70
2018-05-21T17:21:22.749Z,19.70
2018-05-21T17:23:50.284Z,19.70
2018-05-21T17:26:17.747Z,19.60
2018-05-21T17:28:45.213Z,19.60
2018-05-21T17:31:12.721Z,19.60
2018-05-21T17:33:40.195Z,19.50
2018-05-21T17:36:08.477Z,19.50
2018-05-21T17:38:36.715Z,19.40
2018-05-21T17:41:04.217Z,19.40
2018-05-21T17:43:31.746Z,19.30
2018-05-21T17:45:59.997Z,19.30
2018-05-21T17:48:27.524Z,19.30
2018-05-21T17:50:55.035Z,19.20
2018-05-21T17:53:22.506Z,19.20
2018-05-21T17:55:50.778Z,19.00
2018-05-21T17:58:19.019Z,19.00
2018-05-21T18:00:46.535Z,19.00
2018-05-21T18:03:14.077Z,18.90
2018-05-21T18:05:41.563Z,18.90
2018-05-21T18:08:09.086Z,18.80
2018-05-21T18:10:37.384Z,18.70
2018-05-21T18:13:04.865Z,18.70
2018-05-21T18:15:32.375Z,18.60
2018-05-21T18:18:00.636Z,18.50
2018-05-21T18:20:28.166Z,18.50
2018-05-21T18:22:55.670Z,18.50
2018-05-21T18:25:23.951Z,18.30
2018-05-21T18:27:52.279Z,18.20
2018-05-21T18:30:20.604Z,18.20
2018-05-21T18:32:48.016Z,18.20
2018-05-21T18:35:16.283Z,17.90
2018-05-21T18:37:43.775Z,17.90
2018-05-21T18:40:11.299Z,17.80
2018-05-21T18:42:39.701Z,17.70
2018-05-21T18:45:07.143Z,17.70
2018-05-21T18:47:34.612Z,17.60
2018-05-21T18:50:02.147Z,17.50
2018-05-21T18:52:29.659Z,17.40
2018-05-21T18:54:57.917Z,17.30
2018-05-21T18:57:25.438Z,17.20
2018-05-21T18:59:52.959Z,17.20
2018-05-21T19:02:20.480Z,17.10
2018-05-21T19:04:47.955Z,17.10
2018-05-21T19:07:16.247Z,16.90
2018-05-21T19:09:44.554Z,16.80
2018-05-21T19:12:12.015Z,16.70
2018-05-21T19:14:39.520Z,16.60
2018-05-21T19:17:07.811Z,16.40
2018-05-21T19:19:36.110Z,16.30
2018-05-21T19:22:03.587Z,16.40
2018-05-21T19:24:31.116Z,16.30
2018-05-21T19:26:58.657Z,16.00
2018-05-21T19:29:26.912Z,15.70
2018-05-21T19:31:54.412Z,15.70
2018-05-21T19:34:21.898Z,15.50
2018-05-21T19:36:49.412Z,15.40
2018-05-21T19:39:17.671Z,15.40
2018-05-21T19:41:45.958Z,15.50
2018-05-21T19:44:14.184Z,15.50
2018-05-21T19:46:41.662Z,15.50
2018-05-21T19:49:09.169Z,15.50
2018-05-21T19:51:36.688Z,15.40
2018-05-21T19:54:04.207Z,15.30
2018-05-21T19:56:31.715Z,15.20
2018-05-21T19:58:59.943Z,14.80
2018-05-21T20:01:27.422Z,14.80
2018-05-21T20:03:54.894Z,14.70
2018-05-21T20:06:23.202Z,14.60
2018-05-21T20:08:50.656Z,14.60
2018-05-21T20:11:18.159Z,14.70
2018-05-21T20:13:45.725Z,14.80
2018-05-21T20:16:13.211Z,14.80
2018-05-21T20:18:41.484Z,14.70
2018-05-21T20:21:09.783Z,14.60
2018-05-21T20:23:37.332Z,14.60
2018-05-21T20:26:05.599Z,14.50
2018-05-21T20:28:33.873Z,14.30
2018-05-21T20:31:02.179Z,14.20
2018-05-21T20:33:29.675Z,14.20
2018-05-21T20:35:57.158Z,14.20
2018-05-21T20:38:25.386Z,14.40
2018-05-21T20:40:52.876Z,14.40
2018-05-21T20:43:20.405Z,14.30
2018-05-21T20:45:47.916Z,14.10
2018-05-21T20:48:16.153Z,13.80
2018-05-21T20:50:44.450Z,13.80
2018-05-21T20:53:11.943Z,13.70
2018-05-21T20:55:39.425Z,13.60
2018-05-21T20:58:06.945Z,13.50
2018-05-21T21:00:34.447Z,13.40
2018-05-21T21:03:01.910Z,13.40
2018-05-21T21:05:29.431Z,13.30
2018-05-21T21:07:56.911Z,13.20
2018-05-21T21:10:24.378Z,13.10
2018-05-21T21:12:51.896Z,13.00
2018-05-21T21:15:19.399Z,13.00
2018-05-21T21:17:46.910Z,12.90
2018-05-21T21:20:14.394Z,12.90
2018-05-21T21:22:41.929Z,12.90
2018-05-21T21:25:09.468Z,12.90
2018-05-21T21:27:37.756Z,12.70
2018-05-21T21:30:06.008Z,12.60
2018-05-21T21:32:33.587Z,12.60
2018-05-21T21:35:00.987Z,12.50
2018-05-21T21:37:28.504Z,12.50
2018-05-21T21:39:56.730Z,12.30
2018-05-21T21:42:24.997Z,12.30
2018-05-21T21:44:52.502Z,12.30
2018-05-21T21:47:20.784Z,12.30
2018-05-21T21:49:49.077Z,12.30
2018-05-21T21:52:16.573Z,12.30
2018-05-21T21:54:44.039Z,12.30
2018-05-21T21:57:11.569Z,12.30
2018-05-21T21:59:39.075Z,12.20
2018-05-21T22:02:07.327Z,12.10
2018-05-21T22:04:34.832Z,12.10
2018-05-21T22:07:02.352Z,12.10
2018-05-21T22:09:29.857Z,12.00
2018-05-21T22:11:57.367Z,12.00
2018-05-21T22:14:24.888Z,11.90
2018-05-21T22:16:52.420Z,11.70
2018-05-21T22:19:19.933Z,11.70
2018-05-21T22:21:47.406Z,11.70
2018-05-21T22:24:15.674Z,11.80
2018-05-21T22:26:43.201Z,11.80
2018-05-21T22:29:10.741Z,11.90
2018-05-21T22:31:38.282Z,11.90
2018-05-21T22:34:05.802Z,12.10
2018-05-21T22:36:33.317Z,12.40
2018-05-21T22:39:00.822Z,12.50
2018-05-21T22:41:28.339Z,12.50
2018-05-21T22:43:55.801Z,12.50
2018-05-21T22:46:23.286Z,12.40
2018-05-21T22:48:50.782Z,12.30
2018-05-21T22:51:19.011Z,11.90
2018-05-21T22:53:46.539Z,12.00
2018-05-21T22:56:14.057Z,11.90
2018-05-21T22:58:41.567Z,11.80
2018-05-21T23:01:09.064Z,11.80
2018-05-21T23:03:36.531Z,11.80
2018-05-21T23:06:04.819Z,12.10
2018-05-21T23:08:33.122Z,12.10
2018-05-21T23:11:00.588Z,12.10
2018-05-21T23:13:28.104Z,12.00
2018-05-21T23:15:56.367Z,11.80
2018-05-21T23:18:24.662Z,11.60
2018-05-21T23:20:52.928Z,11.40
2018-05-21T23:23:21.201Z,11.20
2018-05-21T23:25:49.464Z,11.10
2018-05-21T23:28:16.966Z,11.10
2018-05-21T23:30:44.481Z,11.10
2018-05-21T23:33:12.772Z,10.90
2018-05-21T23:35:40.999Z,10.90
2018-05-21T23:38:08.542Z,10.90
2018-05-21T23:40:36.014Z,10.80
2018-05-21T23:43:04.267Z,10.70
2018-05-21T23:45:31.786Z,10.70
2018-05-21T23:47:59.314Z,10.60
2018-05-21T23:50:26.819Z,10.60
2018-05-21T23:52:55.095Z,10.50
2018-05-21T23:55:23.323Z,10.50
2018-05-21T23:57:50.839Z,10.50
